Am Qui, Tennessee
Current Conditions -  °F | °C
As of 5:53 PM on Sunday 23 Nov 2014 (Local Time) from KBNA Reporting Station
Overcast Overcast  
Wind Chill: 15°   Ceiling: 1700
Heat Index: 15°   Visibility: 10mi
Dew Point: 13°   Wind: 16mph
Humidity: 90%   Direction: 170°S
Pressure: 29.41"   Gusts: 29mph
Location:  36.2555°N, 86.6973°W
Report Text: KBNA 232353Z 17014G25KT 10SM BKN017 BKN022 OVC048 15/13 A2941 RMK AO2 SLP956 60030 T01500133 10150 20144 56025
Loading
Personal Weather Stations






























Interactive Weather Map New forecast layout! Learn more

10-Day Weather Forecast

Advertisements
Track Severe Weather on mobile